Time;durP1;ratioP1;P1;durP2;ratioP2;P2;SDS_P1;SDS_P2;PMS_P1;PMS_P2;Temp;Humidity;BMP_temperature;BMP_pressure;BME280_temperature;BME280_humidity;BME280_pressure;Samples;Min_cycle;Max_cycle;Signal;HPM_P1;HPM_P2
2023/04/10 00:00:05;;;;;;;54.60;40.65;;;;;;;7.90;100.00;-18240.88;4972211;28;20129;-81
2023/04/10 00:02:30;;;;;;;54.58;39.58;;;;;;;8.03;100.00;-18244.19;4973421;28;20047;-81
2023/04/10 00:04:56;;;;;;;55.38;38.38;;;;;;;8.12;100.00;-18246.66;4969875;28;20492;-81
2023/04/10 00:07:21;;;;;;;56.20;41.08;;;;;;;8.08;100.00;-18245.56;4978303;28;20058;-80
2023/04/10 00:09:46;;;;;;;54.65;38.15;;;;;;;8.15;100.00;-18247.50;4970242;28;20593;-82
2023/04/10 00:12:13;;;;;;;55.53;39.42;;;;;;;8.01;100.00;-18243.63;4978011;28;20034;-81
2023/04/10 00:14:38;;;;;;;53.47;39.22;;;;;;;7.97;100.00;-18242.69;4973031;28;20137;-81
2023/04/10 00:17:04;;;;;;;54.33;39.47;;;;;;;7.97;100.00;-18242.53;4974118;28;20046;-82
2023/04/10 00:19:29;;;;;;;55.90;40.17;;;;;;;7.99;100.00;-18243.09;4969929;28;20042;-82
2023/04/10 00:21:55;;;;;;;53.50;40.25;;;;;;;7.98;100.00;-18242.94;4971485;28;20096;-81
2023/04/10 00:24:21;;;;;;;56.05;39.78;;;;;;;7.97;100.00;-18242.69;4971587;28;20142;-82
2023/04/10 00:26:46;;;;;;;53.80;37.53;;;;;;;7.98;100.00;-18242.94;4968387;28;20395;-81
2023/04/10 00:29:11;;;;;;;58.05;39.25;;;;;;;7.99;100.00;-18243.09;4975274;28;20057;-82
2023/04/10 00:31:37;;;;;;;55.20;39.00;;;;;;;8.01;100.00;-18243.78;4969763;28;20051;-81
2023/04/10 00:34:02;;;;;;;52.15;36.63;;;;;;;7.90;100.00;-18240.88;4970502;28;20379;-81
2023/04/10 00:36:27;;;;;;;55.83;38.90;;;;;;;7.87;100.00;-18240.06;4968062;28;20653;-81
2023/04/10 00:38:53;;;;;;;54.13;37.53;;;;;;;7.91;100.00;-18241.03;4968474;28;20039;-81
2023/04/10 00:41:18;;;;;;;50.45;37.17;;;;;;;7.88;100.00;-18240.34;4969591;28;20129;-82
2023/04/10 00:43:44;;;;;;;54.30;36.63;;;;;;;7.95;100.00;-18242.13;4975466;28;20074;-81
2023/04/10 00:46:10;;;;;;;55.80;37.58;;;;;;;7.89;100.00;-18240.59;4977130;28;20050;-82
2023/04/10 00:48:36;;;;;;;54.42;38.80;;;;;;;7.90;100.00;-18240.75;4967553;28;20092;-81
2023/04/10 00:51:02;;;;;;;55.38;37.40;;;;;;;7.90;100.00;-18240.88;4970805;28;20038;-82
2023/04/10 00:53:28;;;;;;;55.15;38.58;;;;;;;7.79;100.00;-18237.72;4967968;28;20125;-82
2023/04/10 00:55:54;;;;;;;55.25;38.10;;;;;;;7.76;100.00;-18236.88;4969376;28;20690;-82
2023/04/10 00:58:20;;;;;;;53.75;38.25;;;;;;;7.79;100.00;-18237.84;4969186;28;20517;-82
2023/04/10 01:00:46;;;;;;;53.10;36.75;;;;;;;7.76;100.00;-18237.03;4969173;28;20069;-81
2023/04/10 01:03:14;;;;;;;56.95;38.25;;;;;;;7.78;100.00;-18237.59;4968853;28;20050;-81
2023/04/10 01:06:01;;;;;;;54.03;38.75;;;;;;;7.72;100.00;-18235.78;4969774;28;20475;-81
2023/04/10 01:08:42;;;;;;;52.90;38.05;;;;;;;7.68;100.00;-18234.97;4967750;28;20576;-81
2023/04/10 01:11:20;;;;;;;51.72;35.72;;;;;;;7.64;100.00;-18233.84;4967970;28;20055;-81
2023/04/10 01:13:54;;;;;;;53.58;37.03;;;;;;;7.63;100.00;-18233.44;4985828;28;20045;-82
2023/04/10 01:16:30;;;;;;;51.45;38.53;;;;;;;7.56;100.00;-18231.53;4970813;28;20125;-81
2023/04/10 01:19:04;;;;;;;50.65;35.78;;;;;;;7.58;100.00;-18232.06;4967295;28;20101;-81
2023/04/10 01:21:35;;;;;;;51.17;35.65;;;;;;;7.59;100.00;-18232.34;4966874;28;20046;-81
2023/04/10 01:24:20;;;;;;;57.15;37.67;;;;;;;7.44;100.00;-18228.34;4973378;28;20457;-81
2023/04/10 01:26:54;;;;;;;52.47;35.33;;;;;;;7.32;100.00;-18225.19;5002269;23;20177;-82
2023/04/10 01:29:26;;;;;;;50.03;36.38;;;;;;;7.32;100.00;-18225.19;4974081;28;20053;-81
2023/04/10 01:31:57;;;;;;;49.20;35.47;;;;;;;7.34;100.00;-18225.72;4975790;28;20062;-82
2023/04/10 01:34:42;;;;;;;52.60;35.75;;;;;;;7.34;100.00;-18225.72;4977184;28;20464;-81
2023/04/10 01:37:13;;;;;;;51.83;36.97;;;;;;;7.33;100.00;-18225.31;4948798;28;20102;-81
2023/04/10 01:39:41;;;;;;;51.55;36.78;;;;;;;7.24;100.00;-18223.13;4951413;28;20063;-81
2023/04/10 01:42:09;;;;;;;51.70;36.15;;;;;;;7.34;100.00;-18225.72;4960272;28;20047;-82
2023/04/10 01:44:36;;;;;;;49.80;34.28;;;;;;;7.30;100.00;-18224.63;4951843;28;20051;-83
2023/04/10 01:47:06;;;;;;;51.65;35.83;;;;;;;7.23;100.00;-18222.69;4961602;28;20047;-81
2023/04/10 01:49:33;;;;;;;52.78;36.72;;;;;;;7.23;100.00;-18222.69;4953358;28;20051;-82
2023/04/10 01:52:00;;;;;;;50.83;35.63;;;;;;;7.26;100.00;-18223.41;4953431;28;20035;-81
2023/04/10 01:54:31;;;;;;;52.85;35.28;;;;;;;7.28;100.00;-18223.94;4953138;28;20047;-82
2023/04/10 01:57:02;;;;;;;51.53;36.78;;;;;;;7.12;100.00;-18219.81;4952421;28;20145;-82
2023/04/10 01:59:28;;;;;;;55.30;36.83;;;;;;;7.13;100.00;-18219.94;4952875;28;20514;-82
2023/04/10 02:01:58;;;;;;;50.45;34.75;;;;;;;7.13;100.00;-18219.94;4955231;28;20044;-82
2023/04/10 02:04:27;;;;;;;51.95;36.40;;;;;;;7.18;100.00;-18221.31;4959466;28;20043;-83
2023/04/10 02:07:03;;;;;;;52.95;36.95;;;;;;;7.22;100.00;-18222.44;4955991;28;20584;-82
2023/04/10 02:09:55;;;;;;;52.20;37.17;;;;;;;7.15;100.00;-18220.50;4953610;28;20432;-82
2023/04/10 02:12:27;;;;;;;50.97;37.53;;;;;;;7.07;100.00;-18218.28;4965643;28;20134;-81
2023/04/10 02:14:55;;;;;;;54.15;36.85;;;;;;;7.12;100.00;-18219.81;4949841;28;20043;-82
2023/04/10 02:17:26;;;;;;;56.72;37.78;;;;;;;7.09;100.00;-18218.97;4960751;28;20042;-82
2023/04/10 02:19:53;;;;;;;55.42;37.25;;;;;;;7.08;100.00;-18218.56;4954531;28;20039;-83
2023/04/10 02:22:19;;;;;;;58.38;37.60;;;;;;;7.11;100.00;-18219.53;4954151;28;20054;-83
2023/04/10 02:24:45;;;;;;;58.88;39.03;;;;;;;7.04;100.00;-18217.47;4951045;28;20078;-82
2023/04/10 02:27:10;;;;;;;53.88;38.35;;;;;;;7.08;100.00;-18218.56;4953843;28;20047;-83
2023/04/10 02:29:35;;;;;;;54.80;37.88;;;;;;;7.03;100.00;-18217.19;4953068;28;20553;-82
2023/04/10 02:32:01;;;;;;;57.67;38.63;;;;;;;7.04;100.00;-18217.47;4950419;28;20043;-82
2023/04/10 02:34:26;;;;;;;54.15;36.78;;;;;;;7.09;100.00;-18218.84;4959927;28;20070;-83
2023/04/10 02:36:51;;;;;;;55.40;39.72;;;;;;;7.07;100.00;-18218.44;4956149;28;20409;-82
2023/04/10 02:39:17;;;;;;;54.95;38.22;;;;;;;7.04;100.00;-18217.59;4970509;28;20125;-81
2023/04/10 02:41:42;;;;;;;55.08;39.15;;;;;;;7.02;100.00;-18217.06;4955327;28;20044;-82
2023/04/10 02:44:07;;;;;;;53.03;38.47;;;;;;;7.01;100.00;-18216.91;4949488;28;20043;-82
2023/04/10 02:46:33;;;;;;;56.47;40.13;;;;;;;6.93;100.00;-18214.56;4961243;28;20054;-83
2023/04/10 02:48:59;;;;;;;56.00;38.65;;;;;;;6.97;100.00;-18215.69;4953280;28;20041;-82
2023/04/10 02:51:24;;;;;;;55.90;39.20;;;;;;;6.99;100.00;-18216.38;4949437;28;20047;-84
2023/04/10 02:53:51;;;;;;;58.38;39.47;;;;;;;6.86;100.00;-18212.78;4961717;28;20046;-82
2023/04/10 02:56:17;;;;;;;56.97;39.15;;;;;;;6.87;100.00;-18213.06;4954754;28;20050;-81
2023/04/10 02:58:45;;;;;;;58.38;40.58;;;;;;;6.86;100.00;-18212.78;4948483;28;20071;-82
2023/04/10 03:01:11;;;;;;;60.70;40.33;;;;;;;6.81;100.00;-18211.41;4950740;28;20421;-81
2023/04/10 03:03:36;;;;;;;58.92;39.78;;;;;;;6.74;100.00;-18209.47;4955937;28;20043;-82
2023/04/10 03:06:01;;;;;;;55.65;39.08;;;;;;;6.74;100.00;-18209.47;4962811;28;20149;-81
2023/04/10 03:08:27;;;;;;;57.08;40.13;;;;;;;6.68;100.00;-18207.81;4954178;28;20552;-81
2023/04/10 03:10:52;;;;;;;59.63;40.65;;;;;;;6.57;100.00;-18204.78;4954053;28;20765;-82
2023/04/10 03:13:17;;;;;;;60.10;41.05;;;;;;;6.61;100.00;-18205.88;4960278;28;20538;-81
2023/04/10 03:15:43;;;;;;;57.70;39.67;;;;;;;6.57;100.00;-18204.94;4953054;28;20086;-82
2023/04/10 03:18:09;;;;;;;59.13;41.95;;;;;;;6.54;100.00;-18204.22;4964174;28;20097;-82
2023/04/10 03:20:36;;;;;;;61.58;41.83;;;;;;;6.59;100.00;-18205.34;4948751;28;20109;-82
2023/04/10 03:23:02;;;;;;;59.03;40.55;;;;;;;6.55;100.00;-18204.50;4963139;28;20054;-81
2023/04/10 03:25:28;;;;;;;62.60;41.70;;;;;;;6.58;100.00;-18205.19;4959473;28;20042;-82
2023/04/10 03:27:54;;;;;;;63.15;41.67;;;;;;;6.46;100.00;-18201.88;4951086;28;20066;-82
2023/04/10 03:30:20;;;;;;;62.38;41.47;;;;;;;6.45;100.00;-18201.75;4958198;28;20047;-82
2023/04/10 03:32:45;;;;;;;62.50;42.55;;;;;;;6.41;100.00;-18200.66;4954025;28;20051;-83
2023/04/10 03:35:10;;;;;;;59.60;39.47;;;;;;;6.45;100.00;-18201.63;4953239;28;20059;-83
2023/04/10 03:37:36;;;;;;;60.40;40.83;;;;;;;6.47;100.00;-18202.31;4953841;28;20055;-82
2023/04/10 03:40:07;;;;;;;62.45;41.58;;;;;;;6.43;100.00;-18201.19;4953403;28;20043;-83
2023/04/10 03:42:32;;;;;;;57.90;39.72;;;;;;;6.44;100.00;-18201.34;4956321;28;20150;-82
2023/04/10 03:44:57;;;;;;;60.53;41.15;;;;;;;6.45;100.00;-18201.75;4948285;28;20114;-82
2023/04/10 03:47:23;;;;;;;59.08;41.45;;;;;;;6.41;100.00;-18200.66;4964372;28;20061;-82
2023/04/10 03:49:48;;;;;;;58.95;40.38;;;;;;;6.38;100.00;-18199.81;4954332;28;20627;-83
2023/04/10 03:52:14;;;;;;;60.95;41.25;;;;;;;6.39;100.00;-18199.97;4955081;28;20042;-82
2023/04/10 03:54:39;;;;;;;61.85;42.85;;;;;;;6.35;100.00;-18198.84;4952447;28;20494;-82
2023/04/10 03:57:05;;;;;;;67.03;45.17;;;;;;;6.34;100.00;-18198.72;4958841;28;30757;-81
2023/04/10 03:59:30;;;;;;;63.53;42.65;;;;;;;6.26;100.00;-18196.50;4959719;28;20050;-81
2023/04/10 04:01:56;;;;;;;64.15;43.25;;;;;;;6.22;100.00;-18195.53;4966490;28;20070;-83
2023/04/10 04:04:21;;;;;;;73.00;47.70;;;;;;;6.22;100.00;-18195.41;4950845;28;20067;-82
2023/04/10 04:06:47;;;;;;;70.93;45.03;;;;;;;6.22;100.00;-18195.41;4957099;28;20047;-80
2023/04/10 04:09:12;;;;;;;72.15;47.28;;;;;;;6.25;100.00;-18196.38;4952091;28;20102;-81
2023/04/10 04:11:38;;;;;;;71.35;49.13;;;;;;;6.21;100.00;-18195.28;4955007;28;20499;-81
2023/04/10 04:14:03;;;;;;;74.05;47.80;;;;;;;6.27;100.00;-18196.78;4946551;28;20043;-81
2023/04/10 04:16:29;;;;;;;74.20;47.85;;;;;;;6.25;100.00;-18196.25;4952089;28;20047;-81
2023/04/10 04:18:54;;;;;;;76.03;51.10;;;;;;;6.31;100.00;-18198.03;4946717;28;20126;-81
2023/04/10 04:21:19;;;;;;;76.63;50.38;;;;;;;6.33;100.00;-18198.44;4954553;28;20109;-81
2023/04/10 04:23:45;;;;;;;75.80;50.70;;;;;;;6.32;100.00;-18198.16;4955907;28;20043;-82
2023/04/10 04:26:10;;;;;;;77.43;51.58;;;;;;;6.29;100.00;-18197.34;4963390;28;20047;-82
2023/04/10 04:28:35;;;;;;;77.35;49.88;;;;;;;6.26;100.00;-18196.66;4952957;28;20600;-81
2023/04/10 04:31:01;;;;;;;80.00;48.78;;;;;;;6.24;100.00;-18195.97;4953594;28;20141;-82
2023/04/10 04:33:26;;;;;;;75.50;51.42;;;;;;;6.25;100.00;-18196.25;4953682;28;20078;-82
2023/04/10 04:35:52;;;;;;;74.65;49.08;;;;;;;6.27;100.00;-18196.78;4959082;28;20055;-82
2023/04/10 04:38:18;;;;;;;75.78;49.20;;;;;;;6.24;100.00;-18196.09;4951416;28;20043;-83
2023/04/10 04:40:44;;;;;;;77.35;50.08;;;;;;;6.18;100.00;-18194.31;4954521;28;20284;-82
2023/04/10 04:43:09;;;;;;;78.22;50.38;;;;;;;6.16;100.00;-18193.91;4962378;28;20384;-83
2023/04/10 04:45:35;;;;;;;78.13;50.60;;;;;;;6.20;100.00;-18195.00;4955077;28;20857;-83
2023/04/10 04:48:00;;;;;;;75.70;50.03;;;;;;;6.15;100.00;-18193.63;4962514;28;20058;-82
2023/04/10 04:50:25;;;;;;;73.75;48.10;;;;;;;6.15;100.00;-18193.47;4952161;28;20065;-82
2023/04/10 04:52:51;;;;;;;72.65;48.88;;;;;;;6.15;100.00;-18193.63;4954738;28;20043;-83
2023/04/10 04:55:16;;;;;;;73.85;47.35;;;;;;;6.15;100.00;-18193.47;4957431;28;20046;-82
2023/04/10 04:57:41;;;;;;;75.70;48.35;;;;;;;6.13;100.00;-18192.94;4961141;28;20066;-81
2023/04/10 05:00:07;;;;;;;70.53;45.30;;;;;;;6.15;100.00;-18193.47;4958160;28;20140;-82
2023/04/10 05:02:33;;;;;;;73.25;46.72;;;;;;;6.10;100.00;-18192.38;4951034;28;20348;-81
2023/04/10 05:04:58;;;;;;;67.90;46.50;;;;;;;6.09;100.00;-18192.09;4951036;28;20402;-81
2023/04/10 05:07:23;;;;;;;70.75;47.97;;;;;;;6.04;100.00;-18190.72;4957662;28;20093;-83
2023/04/10 05:09:49;;;;;;;71.20;46.28;;;;;;;6.08;100.00;-18191.81;4953857;28;20044;-82
2023/04/10 05:12:15;;;;;;;66.78;46.20;;;;;;;6.06;100.00;-18191.28;4954392;28;20065;-81
2023/04/10 05:14:40;;;;;;;64.28;43.13;;;;;;;6.11;100.00;-18192.50;4959436;28;20042;-81
2023/04/10 05:17:09;;;;;;;66.03;43.85;;;;;;;6.18;100.00;-18194.31;4955469;28;20122;-82
2023/04/10 05:19:34;;;;;;;65.47;42.55;;;;;;;6.25;100.00;-18196.25;4949553;28;20036;-83
2023/04/10 05:22:00;;;;;;;65.15;43.92;;;;;;;6.17;100.00;-18194.03;4968007;28;20336;-82
2023/04/10 05:24:25;;;;;;;60.47;42.75;;;;;;;6.21;100.00;-18195.28;4956620;28;20485;-83
2023/04/10 05:26:50;;;;;;;60.83;42.88;;;;;;;6.25;100.00;-18196.25;4958105;28;20054;-83
2023/04/10 05:29:16;;;;;;;59.53;41.67;;;;;;;6.28;100.00;-18197.19;4971736;28;20042;-84
2023/04/10 05:31:41;;;;;;;64.03;42.60;;;;;;;6.31;100.00;-18197.91;4955783;28;20039;-83
2023/04/10 05:34:06;;;;;;;62.03;40.63;;;;;;;6.36;100.00;-18199.13;4955112;28;20156;-83
2023/04/10 05:36:32;;;;;;;59.75;40.25;;;;;;;6.50;100.00;-18203.13;4958664;28;20101;-83
2023/04/10 05:38:57;;;;;;;59.25;40.63;;;;;;;6.51;100.00;-18203.41;4953815;28;20046;-82
2023/04/10 05:41:22;;;;;;;60.08;38.95;;;;;;;6.59;100.00;-18205.34;4956874;28;20047;-83
2023/04/10 05:43:48;;;;;;;62.17;39.65;;;;;;;6.58;100.00;-18205.06;4958619;28;20137;-82
2023/04/10 05:46:14;;;;;;;54.05;38.15;;;;;;;6.63;100.00;-18206.44;4960476;28;20560;-82
2023/04/10 05:48:39;;;;;;;55.85;36.75;;;;;;;6.62;100.00;-18206.16;4957700;28;20118;-83
2023/04/10 05:51:05;;;;;;;55.33;38.25;;;;;;;6.76;100.00;-18210.03;4955476;28;20438;-83
2023/04/10 05:53:30;;;;;;;56.17;37.97;;;;;;;6.77;100.00;-18210.44;4951466;28;20459;-82
2023/04/10 05:55:58;;;;;;;57.28;38.53;;;;;;;6.86;100.00;-18212.66;4951617;28;20043;-83
2023/04/10 05:58:24;;;;;;;58.45;38.17;;;;;;;7.00;100.00;-18216.63;4951649;28;20074;-80
2023/04/10 06:00:50;;;;;;;56.13;37.60;;;;;;;7.04;100.00;-18217.59;4951286;28;20043;-82
2023/04/10 06:03:16;;;;;;;51.90;35.53;;;;;;;7.14;100.00;-18220.22;4952384;28;20051;-82
2023/04/10 06:05:41;;;;;;;53.40;36.05;;;;;;;7.22;100.00;-18222.56;4962794;28;20053;-82
2023/04/10 06:08:06;;;;;;;52.17;36.65;;;;;;;7.35;100.00;-18225.88;4967984;28;20052;-83
2023/04/10 06:10:32;;;;;;;51.92;34.40;;;;;;;7.46;100.00;-18228.91;4951343;28;20047;-82
2023/04/10 06:12:57;;;;;;;47.28;31.80;;;;;;;7.47;100.00;-18229.31;4952234;28;20451;-83
2023/04/10 06:15:22;;;;;;;47.53;33.00;;;;;;;7.50;100.00;-18229.88;4954034;28;20051;-83
2023/04/10 06:17:48;;;;;;;47.78;32.75;;;;;;;7.61;100.00;-18233.03;4961995;28;20471;-82
2023/04/10 06:20:13;;;;;;;46.35;30.05;;;;;;;7.72;100.00;-18235.94;4953751;28;20050;-81
2023/04/10 06:22:39;;;;;;;44.38;32.17;;;;;;;7.88;100.00;-18240.34;4952862;28;20051;-82
2023/04/10 06:25:05;;;;;;;45.20;30.20;;;;;;;8.01;100.00;-18243.63;4951880;28;20047;-82
2023/04/10 06:27:32;;;;;;;42.80;27.55;;;;;;;8.12;100.00;-18246.66;4951370;28;20043;-83
2023/04/10 06:29:57;;;;;;;40.65;25.88;;;;;;;8.24;100.00;-18249.84;4964648;28;20039;-83
2023/04/10 06:32:23;;;;;;;35.58;24.15;;;;;;;8.36;100.00;-18253.28;4952566;28;20062;-83
2023/04/10 06:34:48;;;;;;;39.92;26.88;;;;;;;8.39;100.00;-18253.84;4949787;28;20491;-84
2023/04/10 06:37:14;;;;;;;36.40;24.75;;;;;;;8.64;100.00;-18260.72;4948722;28;20071;-83
2023/04/10 06:39:39;;;;;;;35.78;24.40;;;;;;;8.76;100.00;-18264.00;4964072;28;20045;-83
2023/04/10 06:42:05;;;;;;;35.08;25.02;;;;;;;8.84;100.00;-18265.94;4950131;28;20130;-82
2023/04/10 06:44:30;;;;;;;34.40;23.98;;;;;;;8.90;100.00;-18267.59;4952988;28;20097;-83
2023/04/10 06:46:55;;;;;;;31.73;21.85;;;;;;;8.95;100.00;-18268.97;4949604;28;20039;-82
2023/04/10 06:49:21;;;;;;;37.17;23.52;;;;;;;9.04;100.00;-18271.44;4950109;28;20067;-82
2023/04/10 06:51:47;;;;;;;33.72;22.48;;;;;;;9.10;100.00;-18273.09;4951623;28;20046;-83
2023/04/10 06:54:12;;;;;;;33.72;22.77;;;;;;;9.04;100.00;-18271.44;4964968;28;20043;-83
2023/04/10 06:56:38;;;;;;;30.88;22.17;;;;;;;9.00;100.00;-18270.34;4950615;28;20046;-82
2023/04/10 06:59:04;;;;;;;29.80;21.15;;;;;;;9.17;100.00;-18275.03;4950374;28;20042;-83
2023/04/10 07:01:29;;;;;;;30.40;21.92;;;;;;;9.30;100.00;-18278.31;4961978;28;20044;-83
2023/04/10 07:03:55;;;;;;;31.75;19.50;;;;;;;9.24;100.00;-18276.94;4952749;28;20135;-83
2023/04/10 07:06:20;;;;;;;30.00;19.55;;;;;;;9.35;100.00;-18279.84;4954988;28;20039;-83
2023/04/10 07:08:48;;;;;;;30.40;20.15;;;;;;;9.51;100.00;-18284.09;4947940;28;20051;-83
2023/04/10 07:11:13;;;;;;;30.50;19.17;;;;;;;9.63;100.00;-18287.25;4951209;28;20043;-83
2023/04/10 07:13:38;;;;;;;28.13;18.60;;;;;;;9.67;100.00;-18288.38;4960736;28;20047;-83
2023/04/10 07:16:05;;;;;;;29.02;21.05;;;;;;;9.77;100.00;-18290.97;4960454;28;20055;-82
2023/04/10 07:18:30;;;;;;;27.60;18.48;;;;;;;9.77;100.00;-18290.97;4952731;28;20446;-83
2023/04/10 07:20:56;;;;;;;26.60;19.27;;;;;;;9.91;100.00;-18294.81;4947844;28;20055;-83
2023/04/10 07:23:21;;;;;;;28.23;18.65;;;;;;;9.93;100.00;-18295.50;4950197;28;20068;-83
2023/04/10 07:25:47;;;;;;;23.25;16.95;;;;;;;9.88;100.00;-18294.13;4952448;28;20693;-82
2023/04/10 07:28:12;;;;;;;25.17;17.23;;;;;;;9.90;100.00;-18294.56;4957725;28;20043;-84
2023/04/10 07:30:37;;;;;;;23.58;16.08;;;;;;;9.97;100.00;-18296.47;4964960;28;20040;-83
2023/04/10 07:33:03;;;;;;;24.15;15.85;;;;;;;10.01;100.00;-18297.56;4955806;28;20050;-83
2023/04/10 07:35:28;;;;;;;22.65;16.33;;;;;;;10.08;100.00;-18299.38;4952474;28;20055;-83
2023/04/10 07:37:54;;;;;;;22.55;14.90;;;;;;;10.15;100.00;-18301.41;4961423;28;20222;-83
2023/04/10 07:40:19;;;;;;;22.40;15.52;;;;;;;10.21;100.00;-18302.78;4954405;28;20027;-83
2023/04/10 07:42:45;;;;;;;23.58;15.25;;;;;;;10.34;100.00;-18306.38;4957237;28;20055;-83
2023/04/10 07:45:11;;;;;;;21.58;14.70;;;;;;;10.50;100.00;-18310.78;4952160;28;20047;-83
2023/04/10 07:47:36;;;;;;;19.40;14.65;;;;;;;10.56;100.00;-18312.28;4966594;28;20035;-83
2023/04/10 07:50:02;;;;;;;21.75;15.57;;;;;;;10.64;100.00;-18314.47;4951289;28;20043;-83
2023/04/10 07:52:27;;;;;;;21.80;14.40;;;;;;;10.69;100.00;-18315.84;4952994;28;20039;-83
2023/04/10 07:54:53;;;;;;;19.00;14.85;;;;;;;10.72;100.00;-18316.53;4967285;28;20047;-83
2023/04/10 07:57:18;;;;;;;20.92;13.15;;;;;;;10.85;100.00;-18320.13;4968893;28;20502;-84
2023/04/10 07:59:43;;;;;;;21.05;13.63;;;;;;;10.98;100.00;-18323.69;4953820;28;20043;-85
2023/04/10 08:02:09;;;;;;;22.00;13.85;;;;;;;11.17;100.00;-18328.63;4952239;28;20082;-83
2023/04/10 08:04:34;;;;;;;20.75;14.13;;;;;;;11.20;100.00;-18329.47;4947518;28;20399;-85
2023/04/10 08:07:00;;;;;;;18.05;13.38;;;;;;;11.28;100.00;-18331.66;4951921;28;20045;-84
2023/04/10 08:09:25;;;;;;;17.80;13.07;;;;;;;11.42;100.00;-18335.50;4952269;28;20094;-86
2023/04/10 08:11:51;;;;;;;18.27;11.43;;;;;;;11.59;100.00;-18340.03;4950988;28;20040;-85
2023/04/10 08:14:16;;;;;;;17.35;12.57;;;;;;;11.58;100.00;-18339.63;4944720;28;20062;-84
2023/04/10 08:16:41;;;;;;;16.42;11.77;;;;;;;11.74;100.00;-18344.16;4953488;28;20683;-84
2023/04/10 08:19:07;;;;;;;18.13;12.35;;;;;;;11.84;100.00;-18346.75;4951047;28;20039;-84
2023/04/10 08:21:32;;;;;;;16.52;12.10;;;;;;;11.91;100.00;-18348.69;4953838;28;20047;-84
2023/04/10 08:24:00;;;;;;;14.50;9.52;;;;;;;12.00;100.00;-18350.88;4957854;28;20283;-84
2023/04/10 08:26:26;;;;;;;14.35;10.32;;;;;;;12.19;100.00;-18356.22;4961371;28;20466;-84
2023/04/10 08:28:54;;;;;;;14.18;9.48;;;;;;;12.17;100.00;-18355.69;4960266;28;20046;-84
2023/04/10 08:31:21;;;;;;;12.48;9.10;;;;;;;12.31;100.00;-18359.25;4958519;28;20094;-84
2023/04/10 08:33:47;;;;;;;15.32;7.50;;;;;;;12.40;94.86;-18361.84;4964997;28;20151;-83
2023/04/10 08:36:14;;;;;;;10.32;7.88;;;;;;;12.50;100.00;-18364.31;4958240;28;20094;-84
2023/04/10 08:38:41;;;;;;;11.23;7.53;;;;;;;12.52;95.86;-18364.88;4959162;28;20043;-84
2023/04/10 08:41:09;;;;;;;10.50;7.55;;;;;;;12.69;99.20;-18369.38;4968378;28;20110;-84
2023/04/10 08:43:34;;;;;;;11.10;7.33;;;;;;;12.67;95.94;-18368.97;4964149;28;20047;-84
2023/04/10 08:46:00;;;;;;;9.23;6.95;;;;;;;12.75;91.41;-18371.19;4964394;28;20043;-84
2023/04/10 08:48:31;;;;;;;10.82;7.03;;;;;;;12.78;92.07;-18371.88;4981574;28;20061;-84
2023/04/10 08:51:00;;;;;;;11.10;6.75;;;;;;;12.85;88.08;-18373.91;4982853;28;20064;-84
2023/04/10 08:53:29;;;;;;;11.50;7.00;;;;;;;13.02;94.87;-18378.31;4963228;28;20039;-84
2023/04/10 08:55:55;;;;;;;9.43;6.70;;;;;;;13.01;90.47;-18378.16;4969781;28;20114;-84
2023/04/10 08:58:21;;;;;;;9.05;5.78;;;;;;;13.01;84.25;-18378.03;4959333;28;20274;-84
2023/04/10 09:00:46;;;;;;;9.43;6.07;;;;;;;13.03;85.53;-18378.56;4955971;28;20043;-84
2023/04/10 09:03:14;;;;;;;9.05;5.72;;;;;;;13.12;84.65;-18381.03;4968096;28;20050;-84
2023/04/10 09:05:40;;;;;;;9.50;5.90;;;;;;;13.19;82.22;-18382.81;4957184;28;20050;-84
2023/04/10 09:08:09;;;;;;;10.60;4.47;;;;;;;13.32;74.71;-18386.41;4954008;28;20031;-84
2023/04/10 09:10:35;;;;;;;7.63;5.20;;;;;;;13.42;83.60;-18389.13;4970285;28;20110;-84
2023/04/10 09:13:00;;;;;;;8.82;4.70;;;;;;;13.47;80.14;-18390.38;4976529;28;20331;-84
2023/04/10 09:15:26;;;;;;;7.68;4.95;;;;;;;13.67;79.33;-18395.84;4971129;28;20082;-83
2023/04/10 09:17:55;;;;;;;8.02;5.53;;;;;;;13.72;76.24;-18397.09;4959658;28;20594;-84
2023/04/10 09:20:22;;;;;;;5.97;4.57;;;;;;;13.83;75.97;-18399.97;4961970;28;20055;-83
2023/04/10 09:22:47;;;;;;;7.70;5.18;;;;;;;13.92;80.83;-18402.56;4955332;28;20063;-84
2023/04/10 09:25:28;;;;;;;6.13;4.38;;;;;;;14.11;76.59;-18407.63;4967547;28;20058;-84
2023/04/10 09:28:08;;;;;;;7.20;5.10;;;;;;;14.30;80.82;-18412.56;4955584;28;20427;-84
2023/04/10 09:30:34;;;;;;;6.60;4.70;;;;;;;14.37;73.30;-18414.47;4955279;28;20122;-84
2023/04/10 09:33:00;;;;;;;6.97;4.70;;;;;;;14.34;68.10;-18413.66;4966021;28;20039;-84
2023/04/10 09:35:35;;;;;;;6.55;4.70;;;;;;;14.47;77.67;-18417.22;4957653;28;20110;-84
2023/04/10 09:38:01;;;;;;;6.88;4.93;;;;;;;14.55;68.55;-18419.28;4954989;28;20039;-84
2023/04/10 09:40:26;;;;;;;6.75;4.78;;;;;;;14.47;65.78;-18417.06;4955525;28;20078;-84
2023/04/10 09:42:54;;;;;;;7.35;4.47;;;;;;;14.54;70.10;-18419.00;4954889;28;20132;-84
2023/04/10 09:45:21;;;;;;;7.03;4.50;;;;;;;14.63;71.85;-18421.59;4959223;28;20058;-84
2023/04/10 09:48:04;;;;;;;6.25;4.03;;;;;;;14.81;69.14;-18426.25;4952977;28;20762;-85
2023/04/10 09:50:34;;;;;;;6.63;4.40;;;;;;;14.95;64.27;-18430.09;4979400;28;20392;-84
2023/04/10 09:53:00;;;;;;;6.00;4.10;;;;;;;15.00;60.18;-18431.44;4954570;28;20122;-85
2023/04/10 09:55:25;;;;;;;7.30;4.20;;;;;;;15.04;58.99;-18432.53;4975462;28;20089;-84
2023/04/10 09:57:51;;;;;;;7.13;4.60;;;;;;;15.15;60.64;-18435.28;4961159;28;20058;-85
2023/04/10 10:00:16;;;;;;;6.72;4.20;;;;;;;15.09;59.77;-18433.91;4963403;28;20310;-85
2023/04/10 10:02:42;;;;;;;7.35;4.57;;;;;;;15.16;59.71;-18435.56;4957033;28;20039;-85
2023/04/10 10:05:08;;;;;;;5.82;4.10;;;;;;;15.08;59.41;-18433.63;4949991;28;20071;-85
2023/04/10 10:07:35;;;;;;;6.35;4.43;;;;;;;15.11;60.71;-18434.31;4971051;28;20046;-85
2023/04/10 10:10:01;;;;;;;5.88;4.30;;;;;;;15.16;59.91;-18435.56;4955035;28;20128;-85
2023/04/10 10:12:30;;;;;;;6.07;3.95;;;;;;;15.18;64.53;-18436.25;4953872;28;20058;-85
2023/04/10 10:15:07;;;;;;;7.55;4.50;;;;;;;15.18;60.07;-18436.25;4956303;28;20046;-82
2023/04/10 10:17:55;;;;;;;6.40;4.35;;;;;;;15.09;60.86;-18433.91;4956598;28;20142;-83
2023/04/10 10:20:22;;;;;;;7.90;4.65;;;;;;;15.02;60.86;-18431.88;4961335;28;20050;-83
2023/04/10 10:22:49;;;;;;;5.82;4.28;;;;;;;15.16;62.12;-18435.69;4951725;28;20078;-82
2023/04/10 10:25:15;;;;;;;6.28;4.35;;;;;;;15.40;62.71;-18442.13;4950683;28;20065;-83
2023/04/10 10:27:41;;;;;;;7.45;4.65;;;;;;;15.43;59.62;-18442.81;4951988;28;20055;-83
2023/04/10 10:30:08;;;;;;;5.75;4.10;;;;;;;15.50;59.81;-18444.84;4949221;28;20067;-82
2023/04/10 10:32:35;;;;;;;6.22;4.32;;;;;;;15.52;58.10;-18445.28;4959374;28;20042;-82
2023/04/10 10:35:02;;;;;;;5.90;4.10;;;;;;;15.51;57.94;-18445.00;4951265;28;20069;-82
2023/04/10 10:37:29;;;;;;;6.47;4.03;;;;;;;15.62;58.75;-18448.00;4950847;28;20047;-83
2023/04/10 10:40:13;;;;;;;6.22;3.97;;;;;;;15.73;58.29;-18450.88;4951654;28;20095;-83
2023/04/10 10:42:49;;;;;;;5.47;3.85;;;;;;;15.61;57.17;-18447.72;4951304;28;20055;-82
2023/04/10 10:45:22;;;;;;;5.72;3.78;;;;;;;15.52;57.95;-18445.28;4953447;28;20049;-83
2023/04/10 10:47:53;;;;;;;6.13;4.10;;;;;;;15.57;58.56;-18446.63;4965196;28;20042;-83
2023/04/10 10:50:19;;;;;;;6.20;4.05;;;;;;;15.61;58.61;-18447.72;4950349;28;20679;-83
2023/04/10 10:52:52;;;;;;;5.78;3.67;;;;;;;15.41;59.04;-18442.41;4951148;28;20363;-82
2023/04/10 10:55:21;;;;;;;7.90;4.00;;;;;;;15.43;63.08;-18442.94;4945197;28;20101;-84
2023/04/10 10:57:48;;;;;;;6.97;3.57;;;;;;;15.47;61.34;-18444.03;4942297;28;20452;-84
2023/04/10 11:00:15;;;;;;;5.75;3.67;;;;;;;15.44;58.55;-18443.06;4943550;28;20111;-84
2023/04/10 11:02:41;;;;;;;5.32;3.60;;;;;;;15.44;59.42;-18443.06;4946109;28;20495;-84
2023/04/10 11:05:06;;;;;;;5.20;3.75;;;;;;;15.45;60.87;-18443.50;4944755;28;20058;-84
2023/04/10 11:08:00;;;;;;;5.22;3.72;;;;;;;15.54;62.16;-18445.81;4943875;28;20179;-84
2023/04/10 11:11:07;;;;;;;5.55;4.00;;;;;;;15.63;62.36;-18448.28;4961212;28;20054;-84